Lindale, GA

12:31 PM EST on January 27, 2015 (GMT -0500)
Lindale | Change Station
CLOSE
Current Station
Personal Weather Station
Location: Lindale, GA
Elevation: 780 ft
Nearby Weather Stations

Elev 780 ft 34.16 °N, 85.18 °W | Updated 12 seconds ago

Clear
Clear
46.7 °F
Feels Like 47 °F
N
3.0
Wind Variable Wind from NE
Gusts 14.0 mph

Today
High -- | Low -- °F
--% Chance of Precip.
Yesterday
High -- | Low -- °F
Precip. -- in
7:41 AM 6:05 PM
First Quarter, 56% visible
Pressure 29.99 in
Visibility 10.0 miles
Clouds Mostly Cloudy 3700 ft
Overcast 4500 ft
Windchill 47 °F
Dew Point 34 °F
Humidity 60%
Rainfall 0.00 in
Snow Depth Not available.
UV 1 out of 12
Pollen 3.00 out of 12
Air Quality Not available.
Flu Activity Not available.
METAR KRMG 271653Z AUTO 01013KT 10SM BKN037 OVC045 07/01 A2999 RMK AO2 SLP155 T00720006

More Conditions Fewer Conditions

Pressure 29.99 in
Visibility 10.0 miles
Clouds Mostly Cloudy 3700 ft
Overcast 4500 ft
Windchill 47 °F
Dew Point 34 °F
Humidity 60%
Rainfall 0.00 in
Snow Depth Not available.
UV 1 out of 12
Pollen 3.00 out of 12
Air Quality Not available.
Flu Activity Not available.
METAR KRMG 271653Z AUTO 01013KT 10SM BKN037 OVC045 07/01 A2999 RMK AO2 SLP155 T00720006

More Conditions Fewer Conditions

10-Day Weather Forecast

Almanac

Astronomy

Jan. 27, 2015 Rise Set
Actual Time
Civil Twilight
Nautical Twilight
Astronomical Twilight
Moon
Length of Visible Light
Length of Day
Tomorrow will be .
, % of the Moon is Illuminated

Today's Extremes

State Highs State Lows

Community

WunderPhotos

Upload Photos

1,790,732 photos uploaded!

WunderBlogs® & News

Nearby

Air Quality

  Air Quality AQ Index Pollutant
Not available.

Snow Depth

Station Depth Elevation

Earthquake Activity

City Distance Mag. Time & Date
Minimum magnitude displayed is 2.5.

Coastal Water Temperatures

Place Temperature

Nearby Weather Stations